createdAt,value
2022-12-08T00:00:09.972Z,24.03
2022-12-08T00:02:36.860Z,24.40
2022-12-08T00:05:22.815Z,24.60
2022-12-08T00:08:08.449Z,25.30
2022-12-08T00:10:50.829Z,27.20
2022-12-08T00:13:17.750Z,24.93
2022-12-08T00:15:44.603Z,28.17
2022-12-08T00:18:12.099Z,23.57
2022-12-08T00:20:38.958Z,25.13
2022-12-08T00:23:05.788Z,22.13
2022-12-08T00:25:36.284Z,21.90
2022-12-08T00:28:03.150Z,21.30
2022-12-08T00:30:29.944Z,23.00
2022-12-08T00:32:56.844Z,20.77
2022-12-08T00:35:23.661Z,24.77
2022-12-08T00:37:53.973Z,24.17
2022-12-08T00:40:23.067Z,21.07
2022-12-08T00:42:50.033Z,20.87
2022-12-08T00:45:16.951Z,20.10
2022-12-08T00:47:43.843Z,20.43
2022-12-08T00:50:11.163Z,21.17
2022-12-08T00:52:38.503Z,22.33
2022-12-08T00:55:05.921Z,20.20
2022-12-08T00:57:32.755Z,19.63
2022-12-08T00:59:59.571Z,20.27
2022-12-08T01:02:26.470Z,18.27
2022-12-08T01:04:53.322Z,20.97
2022-12-08T01:07:20.148Z,18.73
2022-12-08T01:09:46.980Z,23.63
2022-12-08T01:12:13.789Z,20.63
2022-12-08T01:14:40.652Z,20.93
2022-12-08T01:17:07.552Z,18.20
2022-12-08T01:19:34.987Z,22.10
2022-12-08T01:22:01.829Z,22.53
2022-12-08T01:24:28.725Z,18.70
2022-12-08T01:26:55.577Z,20.13
2022-12-08T01:29:22.457Z,25.00
2022-12-08T01:31:49.312Z,24.00
2022-12-08T01:34:16.258Z,22.97
2022-12-08T01:36:44.529Z,21.80
2022-12-08T01:39:15.940Z,23.80
2022-12-08T01:41:43.903Z,23.33
2022-12-08T01:44:10.935Z,21.93
2022-12-08T01:46:43.270Z,22.50
2022-12-08T01:49:22.749Z,20.93
2022-12-08T01:52:04.401Z,22.50
2022-12-08T01:54:42.886Z,25.20
2022-12-08T01:57:36.472Z,26.10
2022-12-08T02:00:10.224Z,28.20
2022-12-08T02:02:58.583Z,24.87
2022-12-08T02:05:29.420Z,25.27
2022-12-08T02:07:58.611Z,23.60
2022-12-08T02:10:29.134Z,22.37
2022-12-08T02:12:58.090Z,22.73
2022-12-08T02:15:37.672Z,24.80
2022-12-08T02:18:22.633Z,22.63
2022-12-08T02:21:07.461Z,24.17
2022-12-08T02:24:00.875Z,25.40
2022-12-08T02:26:46.545Z,30.07
2022-12-08T02:29:37.635Z,23.13
2022-12-08T02:32:39.586Z,22.17
2022-12-08T02:35:46.478Z,23.83
2022-12-08T02:38:25.220Z,23.70
2022-12-08T02:41:25.585Z,26.03
2022-12-08T02:44:05.934Z,24.60
2022-12-08T02:47:13.207Z,25.77
2022-12-08T02:49:40.149Z,23.90
2022-12-08T02:52:08.160Z,24.90
2022-12-08T02:54:36.232Z,25.73
2022-12-08T02:57:12.911Z,24.97
2022-12-08T03:00:06.602Z,28.93
2022-12-08T03:02:45.789Z,29.23
2022-12-08T03:05:18.823Z,26.27
2022-12-08T03:08:17.445Z,26.30
2022-12-08T03:10:52.888Z,25.00
2022-12-08T03:13:30.748Z,27.70
2022-12-08T03:15:57.967Z,27.73
2022-12-08T03:18:31.921Z,30.77
2022-12-08T03:21:00.252Z,27.33
2022-12-08T03:23:27.138Z,26.40
2022-12-08T03:26:04.042Z,26.00
2022-12-08T03:28:31.254Z,27.33
2022-12-08T03:31:02.684Z,23.83
2022-12-08T03:33:35.611Z,27.40
2022-12-08T03:36:06.910Z,31.13
2022-12-08T03:38:42.937Z,28.07
2022-12-08T03:41:19.291Z,28.40
2022-12-08T03:43:50.952Z,29.30
2022-12-08T03:46:19.034Z,26.70
2022-12-08T03:48:45.913Z,27.10
2022-12-08T03:51:13.179Z,24.70
2022-12-08T03:53:40.274Z,27.50
2022-12-08T03:56:20.205Z,26.50
2022-12-08T03:58:47.028Z,25.50
2022-12-08T04:01:13.873Z,27.50
2022-12-08T04:03:40.788Z,28.43
2022-12-08T04:06:07.852Z,25.40
2022-12-08T04:08:34.965Z,25.17
2022-12-08T04:11:01.803Z,25.37
2022-12-08T04:13:28.700Z,24.43
2022-12-08T04:15:55.665Z,26.50
2022-12-08T04:18:23.085Z,26.90
2022-12-08T04:20:49.900Z,23.53
2022-12-08T04:23:16.804Z,27.73
2022-12-08T04:25:43.872Z,23.47
2022-12-08T04:28:10.971Z,24.37
2022-12-08T04:30:37.813Z,25.43
2022-12-08T04:33:04.924Z,24.37
2022-12-08T04:35:31.947Z,26.90
2022-12-08T04:37:58.798Z,23.57
2022-12-08T04:40:25.785Z,25.93
2022-12-08T04:42:52.597Z,27.77
2022-12-08T04:45:19.485Z,26.77
2022-12-08T04:47:46.326Z,22.00
2022-12-08T04:50:13.307Z,22.37
2022-12-08T04:52:40.131Z,26.07
2022-12-08T04:55:07.391Z,21.60
2022-12-08T04:57:34.224Z,22.63
2022-12-08T05:00:01.188Z,19.77
2022-12-08T05:02:28.149Z,22.83
2022-12-08T05:04:55.049Z,23.77
2022-12-08T05:07:21.872Z,24.33
2022-12-08T05:09:48.687Z,21.77
2022-12-08T05:12:15.521Z,21.33
2022-12-08T05:14:42.306Z,22.43
2022-12-08T05:17:10.047Z,27.37
2022-12-08T05:19:37.023Z,21.07
2022-12-08T05:22:03.844Z,21.40
2022-12-08T05:24:30.673Z,19.93
2022-12-08T05:26:57.494Z,23.60
2022-12-08T05:29:24.421Z,20.73
2022-12-08T05:31:51.345Z,19.90
2022-12-08T05:34:18.264Z,22.60
2022-12-08T05:36:45.168Z,23.30
2022-12-08T05:39:15.760Z,26.00
2022-12-08T05:41:42.715Z,21.37
2022-12-08T05:44:09.770Z,22.37
2022-12-08T05:46:37.028Z,23.53
2022-12-08T05:49:04.584Z,25.37
2022-12-08T05:51:31.548Z,23.50
2022-12-08T05:53:58.528Z,22.20
2022-12-08T05:56:25.402Z,21.70
2022-12-08T05:58:52.284Z,22.87
2022-12-08T06:01:30.849Z,22.90
2022-12-08T06:03:58.997Z,21.57
2022-12-08T06:06:27.169Z,25.20
2022-12-08T06:08:54.264Z,21.37
2022-12-08T06:11:23.697Z,20.27
2022-12-08T06:13:51.007Z,20.50
2022-12-08T06:16:18.882Z,21.20
2022-12-08T06:18:46.268Z,17.10
2022-12-08T06:21:14.946Z,25.10
2022-12-08T06:23:42.401Z,19.33
2022-12-08T06:26:11.930Z,20.77
2022-12-08T06:28:39.675Z,23.20
2022-12-08T06:31:15.525Z,18.10
2022-12-08T06:33:42.320Z,19.30
2022-12-08T06:36:11.394Z,17.67
2022-12-08T06:38:42.966Z,19.70
2022-12-08T06:41:10.740Z,19.17
2022-12-08T06:43:37.912Z,19.33
2022-12-08T06:46:07.289Z,17.67
2022-12-08T06:48:34.221Z,15.90
2022-12-08T06:51:15.452Z,19.47
2022-12-08T06:53:43.331Z,18.57
2022-12-08T06:56:11.356Z,19.90
2022-12-08T06:58:38.694Z,17.03
2022-12-08T07:01:11.144Z,17.40
2022-12-08T07:03:38.896Z,19.20
2022-12-08T07:06:06.751Z,19.10
2022-12-08T07:08:34.759Z,18.37
2022-12-08T07:11:08.813Z,21.90
2022-12-08T07:13:35.854Z,19.10
2022-12-08T07:16:06.576Z,21.40
2022-12-08T07:18:33.817Z,19.53
2022-12-08T07:21:09.492Z,21.80
2022-12-08T07:23:36.843Z,18.40
2022-12-08T07:26:05.954Z,17.03
2022-12-08T07:28:34.461Z,16.10
2022-12-08T07:31:01.512Z,18.13
2022-12-08T07:33:28.705Z,15.20
2022-12-08T07:36:05.390Z,16.63
2022-12-08T07:38:32.349Z,17.90
2022-12-08T07:40:59.501Z,17.17
2022-12-08T07:43:26.515Z,17.90
2022-12-08T07:45:53.487Z,18.50
2022-12-08T07:48:20.422Z,18.93
2022-12-08T07:50:47.650Z,14.57
2022-12-08T07:53:14.730Z,15.83
2022-12-08T07:55:43.479Z,15.73
2022-12-08T07:58:10.782Z,22.27
2022-12-08T08:00:37.822Z,13.50
2022-12-08T08:03:04.827Z,17.70
2022-12-08T08:05:31.649Z,20.03
2022-12-08T08:07:58.573Z,19.30
2022-12-08T08:10:25.621Z,21.90
2022-12-08T08:12:52.884Z,17.00
2022-12-08T08:15:21.227Z,15.60
2022-12-08T08:17:53.485Z,18.70
2022-12-08T08:20:21.508Z,19.00
2022-12-08T08:22:50.435Z,14.03
2022-12-08T08:25:18.696Z,18.93
2022-12-08T08:27:46.608Z,21.70
2022-12-08T08:30:20.118Z,23.77
2022-12-08T08:32:49.187Z,20.97
2022-12-08T08:35:16.844Z,19.07
2022-12-08T08:37:48.580Z,16.20
2022-12-08T08:40:16.779Z,20.80
2022-12-08T08:42:43.558Z,21.70
2022-12-08T08:45:10.867Z,14.50
2022-12-08T08:47:37.666Z,15.63
2022-12-08T08:50:05.155Z,15.03
2022-12-08T08:52:32.319Z,17.13
2022-12-08T08:54:59.189Z,16.43
2022-12-08T08:57:26.418Z,13.90
2022-12-08T08:59:53.936Z,19.20
2022-12-08T09:02:21.844Z,18.97
2022-12-08T09:04:48.931Z,18.50
2022-12-08T09:07:16.209Z,18.40
2022-12-08T09:09:43.212Z,15.53
2022-12-08T09:12:10.394Z,17.83
2022-12-08T09:14:37.455Z,20.87
2022-12-08T09:17:04.424Z,18.73
2022-12-08T09:19:31.318Z,16.90
2022-12-08T09:21:58.124Z,15.90
2022-12-08T09:24:24.920Z,15.77
2022-12-08T09:26:51.738Z,15.60
2022-12-08T09:29:18.550Z,14.60
2022-12-08T09:31:45.552Z,13.17
2022-12-08T09:34:13.163Z,16.03
2022-12-08T09:36:40.558Z,20.57
2022-12-08T09:39:07.599Z,12.00
2022-12-08T09:41:50.270Z,16.07
2022-12-08T09:45:03.904Z,13.53
2022-12-08T09:47:42.572Z,16.40
2022-12-08T09:50:45.412Z,13.43
2022-12-08T09:53:39.289Z,12.47
2022-12-08T09:56:13.213Z,12.40
2022-12-08T09:58:58.735Z,14.60
2022-12-08T10:01:34.420Z,13.80
2022-12-08T10:04:01.928Z,13.00
2022-12-08T10:06:36.949Z,15.70
2022-12-08T10:09:24.386Z,11.90
2022-12-08T10:11:58.016Z,13.80
2022-12-08T10:14:42.008Z,15.50
2022-12-08T10:17:32.255Z,13.37
2022-12-08T10:20:12.163Z,12.13
2022-12-08T10:22:44.477Z,16.03
2022-12-08T10:25:20.405Z,13.17
2022-12-08T10:27:51.312Z,12.97
2022-12-08T10:30:19.853Z,13.10
2022-12-08T10:32:49.452Z,12.90
2022-12-08T10:35:19.049Z,10.97
2022-12-08T10:38:00.470Z,12.70
2022-12-08T10:40:29.489Z,13.53
2022-12-08T10:42:59.257Z,12.30
2022-12-08T10:45:41.578Z,12.70
2022-12-08T10:48:19.063Z,11.40
2022-12-08T10:50:58.040Z,13.77
2022-12-08T10:53:30.810Z,16.03
2022-12-08T10:56:03.723Z,14.20
2022-12-08T10:58:41.142Z,15.10
2022-12-08T11:01:25.634Z,14.90
2022-12-08T11:03:58.908Z,13.63
2022-12-08T11:06:40.152Z,11.03
2022-12-08T11:09:15.777Z,13.23
2022-12-08T11:11:52.619Z,15.60
2022-12-08T11:14:24.039Z,12.77
2022-12-08T11:16:53.713Z,13.20
2022-12-08T11:19:25.723Z,15.90
2022-12-08T11:21:52.582Z,14.27
2022-12-08T11:24:28.613Z,11.73
2022-12-08T11:27:02.577Z,12.13
2022-12-08T11:29:32.811Z,10.97
2022-12-08T11:32:11.517Z,14.40
2022-12-08T11:35:10.059Z,16.40
2022-12-08T11:37:40.464Z,12.27
2022-12-08T11:40:29.040Z,14.97
2022-12-08T11:43:17.662Z,12.07
2022-12-08T11:45:45.206Z,11.50
2022-12-08T11:48:19.529Z,11.60
2022-12-08T11:50:58.667Z,13.13
2022-12-08T11:53:33.257Z,10.10
2022-12-08T11:56:08.489Z,10.17
2022-12-08T11:58:49.679Z,9.27
2022-12-08T12:01:25.593Z,11.20
2022-12-08T12:03:59.910Z,7.77
2022-12-08T12:06:54.709Z,9.20
2022-12-08T12:09:46.270Z,8.73
2022-12-08T12:12:19.343Z,11.17
2022-12-08T12:14:58.101Z,16.20
2022-12-08T12:18:01.981Z,9.83
2022-12-08T12:20:34.812Z,9.03
2022-12-08T12:23:19.871Z,10.17
2022-12-08T12:25:55.484Z,8.23
2022-12-08T12:28:26.176Z,9.57
2022-12-08T12:31:13.657Z,8.13
2022-12-08T12:33:42.286Z,9.37
2022-12-08T12:36:10.842Z,11.00
2022-12-08T12:39:04.071Z,9.60
2022-12-08T12:41:54.917Z,9.97
2022-12-08T12:44:38.405Z,10.87
2022-12-08T12:47:11.444Z,8.67
2022-12-08T12:49:38.216Z,7.33
2022-12-08T12:52:18.771Z,10.93
2022-12-08T12:55:11.077Z,8.20
2022-12-08T12:57:40.322Z,9.47
2022-12-08T13:00:17.687Z,9.40
2022-12-08T13:02:44.573Z,7.73
2022-12-08T13:05:16.543Z,7.83
2022-12-08T13:07:49.309Z,9.80
2022-12-08T13:10:16.248Z,10.03
2022-12-08T13:12:44.558Z,8.27
2022-12-08T13:15:20.187Z,7.80
2022-12-08T13:17:49.070Z,8.00
2022-12-08T13:20:24.958Z,7.53
2022-12-08T13:22:54.625Z,7.30
2022-12-08T13:26:17.146Z,7.20
2022-12-08T13:28:59.222Z,7.90
2022-12-08T13:31:51.828Z,9.43
2022-12-08T13:34:28.738Z,6.70
2022-12-08T13:37:13.533Z,9.10
2022-12-08T13:39:40.446Z,6.43
2022-12-08T13:42:26.303Z,11.87
2022-12-08T13:48:39.231Z,6.20
2022-12-08T13:57:08.891Z,6.10
2022-12-08T13:59:44.614Z,7.37
2022-12-08T14:02:38.637Z,6.80
2022-12-08T14:05:35.176Z,8.10
2022-12-08T14:07:56.797Z,8.50
2022-12-08T14:10:27.802Z,7.77
2022-12-08T14:13:03.838Z,10.40
2022-12-08T14:15:37.861Z,7.37
2022-12-08T14:18:21.306Z,9.00
2022-12-08T14:23:50.979Z,9.73
2022-12-08T14:26:18.080Z,9.30
2022-12-08T14:28:45.435Z,10.70
2022-12-08T14:31:14.767Z,8.17
2022-12-08T14:33:42.554Z,10.07
2022-12-08T14:36:11.025Z,10.60
2022-12-08T14:38:38.234Z,9.80
2022-12-08T14:41:11.129Z,9.80
2022-12-08T14:43:38.012Z,8.60
2022-12-08T14:46:19.741Z,8.33
2022-12-08T14:48:47.051Z,11.67
2022-12-08T14:51:19.421Z,11.07
2022-12-08T14:54:09.513Z,11.20
2022-12-08T14:56:36.404Z,11.07
2022-12-08T14:59:22.925Z,9.07
2022-12-08T15:01:53.638Z,9.30
2022-12-08T15:04:27.085Z,11.30
2022-12-08T15:07:05.315Z,10.10
2022-12-08T15:09:37.018Z,13.70
2022-12-08T15:12:12.717Z,8.40
2022-12-08T15:14:58.104Z,10.73
2022-12-08T15:17:50.014Z,8.30
2022-12-08T15:20:43.216Z,10.50
2022-12-08T15:23:48.345Z,8.40
2022-12-08T15:26:27.099Z,8.33
2022-12-08T15:28:55.019Z,10.00
2022-12-08T15:31:22.024Z,7.93
2022-12-08T15:33:48.969Z,9.27
2022-12-08T15:36:15.790Z,8.80
2022-12-08T15:38:43.416Z,12.33
2022-12-08T15:41:14.871Z,11.80
2022-12-08T15:43:42.351Z,10.33
2022-12-08T15:46:09.174Z,7.93
2022-12-08T15:48:37.994Z,9.00
2022-12-08T15:51:05.092Z,10.80
2022-12-08T15:53:31.950Z,17.13
2022-12-08T15:58:55.766Z,15.43
2022-12-08T16:01:24.422Z,15.77
2022-12-08T16:09:26.848Z,18.30
2022-12-08T16:12:12.690Z,20.17
2022-12-08T16:15:47.161Z,15.37
2022-12-08T16:17:28.180Z,13.93
2022-12-08T16:19:55.290Z,17.00
2022-12-08T16:22:54.193Z,14.77
2022-12-08T16:25:19.296Z,17.33
2022-12-08T16:28:01.489Z,13.17
2022-12-08T16:30:30.315Z,13.20
2022-12-08T16:32:57.187Z,14.93
2022-12-08T16:35:24.204Z,13.87
2022-12-08T16:37:51.070Z,14.13
2022-12-08T16:40:18.243Z,17.93
2022-12-08T16:42:46.576Z,18.73
2022-12-08T16:45:22.825Z,14.60
2022-12-08T16:47:57.269Z,18.87
2022-12-08T16:50:31.819Z,20.10
2022-12-08T16:52:59.995Z,18.90
2022-12-08T16:55:27.656Z,17.50
2022-12-08T16:57:55.033Z,19.00
2022-12-08T17:00:25.348Z,20.70
2022-12-08T17:02:53.099Z,15.33
2022-12-08T17:05:21.959Z,15.70
2022-12-08T17:07:50.883Z,15.13
2022-12-08T17:10:23.489Z,16.90
2022-12-08T17:12:50.746Z,16.80
2022-12-08T17:15:20.407Z,19.60
2022-12-08T17:17:47.386Z,48.23
2022-12-08T17:20:26.320Z,21.07
2022-12-08T17:22:57.909Z,19.83
2022-12-08T17:25:29.137Z,20.73
2022-12-08T17:27:56.435Z,21.47
2022-12-08T17:30:23.863Z,18.17
2022-12-08T17:32:52.817Z,16.23
2022-12-08T17:35:19.864Z,23.00
2022-12-08T17:37:46.706Z,17.27
2022-12-08T17:40:13.728Z,15.50
2022-12-08T17:42:40.873Z,17.00
2022-12-08T17:45:08.688Z,16.90
2022-12-08T17:47:35.897Z,15.00
2022-12-08T17:50:03.072Z,17.70
2022-12-08T17:52:30.097Z,16.57
2022-12-08T17:54:56.942Z,14.93
2022-12-08T17:57:23.833Z,16.00
2022-12-08T17:59:50.684Z,17.33
2022-12-08T18:02:17.606Z,20.30
2022-12-08T18:04:44.537Z,17.67
2022-12-08T18:07:11.422Z,22.07
2022-12-08T18:09:38.373Z,21.30
2022-12-08T18:12:05.477Z,16.17
2022-12-08T18:14:32.359Z,16.20
2022-12-08T18:16:59.266Z,19.27
2022-12-08T18:19:26.358Z,19.73
2022-12-08T18:21:53.206Z,16.03
2022-12-08T18:24:22.690Z,15.70
2022-12-08T18:26:52.361Z,16.37
2022-12-08T18:29:21.061Z,14.30
2022-12-08T18:31:47.955Z,17.13
2022-12-08T18:34:15.043Z,19.10
2022-12-08T18:36:42.087Z,21.80
2022-12-08T18:39:30.300Z,20.90
2022-12-08T18:41:58.796Z,23.73
2022-12-08T18:44:25.801Z,18.90
2022-12-08T18:46:52.654Z,19.40
2022-12-08T18:49:19.937Z,18.50
2022-12-08T18:51:47.424Z,15.57
2022-12-08T18:54:14.511Z,16.33
2022-12-08T18:56:41.420Z,18.23
2022-12-08T18:59:12.288Z,19.43
2022-12-08T19:01:40.604Z,17.47
2022-12-08T19:04:27.861Z,20.13
2022-12-08T19:06:55.919Z,16.00
2022-12-08T19:09:22.921Z,19.13
2022-12-08T19:11:50.146Z,15.60
2022-12-08T19:14:19.142Z,13.10
2022-12-08T19:16:48.178Z,14.80
2022-12-08T19:19:15.440Z,16.77
2022-12-08T19:21:46.519Z,15.90
2022-12-08T19:24:13.751Z,13.97
2022-12-08T19:26:42.116Z,14.97
2022-12-08T19:29:09.696Z,14.90
2022-12-08T19:31:36.882Z,15.80
2022-12-08T19:34:05.330Z,20.43
2022-12-08T19:36:35.644Z,18.97
2022-12-08T19:39:22.290Z,15.80
2022-12-08T19:42:08.138Z,16.40
2022-12-08T19:44:53.287Z,21.60
2022-12-08T19:47:25.094Z,18.80
2022-12-08T19:49:53.956Z,22.53
2022-12-08T19:52:21.231Z,17.70
2022-12-08T19:54:48.088Z,17.10
2022-12-08T19:57:15.994Z,15.90
2022-12-08T19:59:42.899Z,16.17
2022-12-08T20:02:11.528Z,19.67
2022-12-08T20:04:38.523Z,18.30
2022-12-08T20:07:05.397Z,23.17
2022-12-08T20:09:32.239Z,18.57
2022-12-08T20:11:59.088Z,18.43
2022-12-08T20:14:25.915Z,20.97
2022-12-08T20:16:52.878Z,17.67
2022-12-08T20:19:19.929Z,18.70
2022-12-08T20:21:48.555Z,19.77
2022-12-08T20:24:17.341Z,19.00
2022-12-08T20:26:44.195Z,24.93
2022-12-08T20:29:11.840Z,21.60
2022-12-08T20:31:38.765Z,21.23
2022-12-08T20:34:05.662Z,21.63
2022-12-08T20:36:32.598Z,22.23
2022-12-08T20:38:59.486Z,19.20
2022-12-08T20:41:26.380Z,22.70
2022-12-08T20:43:53.353Z,20.10
2022-12-08T20:46:21.528Z,23.70
2022-12-08T20:48:48.795Z,20.10
2022-12-08T20:51:18.819Z,21.80
2022-12-08T20:53:46.505Z,22.37
2022-12-08T20:56:22.361Z,19.67
2022-12-08T20:58:50.352Z,19.20
2022-12-08T21:01:22.520Z,16.03
2022-12-08T21:03:50.989Z,18.40
2022-12-08T21:06:22.845Z,18.80
2022-12-08T21:08:50.833Z,18.50
2022-12-08T21:11:18.389Z,19.30
2022-12-08T21:13:45.718Z,16.70
2022-12-08T21:16:16.169Z,20.63
2022-12-08T21:18:43.193Z,20.53
2022-12-08T21:21:14.749Z,17.73
2022-12-08T21:23:42.854Z,21.73
2022-12-08T21:26:19.010Z,21.43
2022-12-08T21:28:46.380Z,18.27
2022-12-08T21:31:16.811Z,19.90
2022-12-08T21:33:44.446Z,18.07
2022-12-08T21:36:14.961Z,16.40
2022-12-08T21:38:43.286Z,20.80
2022-12-08T21:41:16.137Z,19.60
2022-12-08T21:43:43.501Z,19.07
2022-12-08T21:46:19.158Z,16.50
2022-12-08T21:48:46.729Z,16.93
2022-12-08T21:51:13.948Z,17.37
2022-12-08T21:53:40.801Z,16.97
2022-12-08T21:56:10.779Z,21.87
2022-12-08T21:58:39.790Z,20.00
2022-12-08T22:01:09.427Z,19.97
2022-12-08T22:03:38.707Z,20.63
2022-12-08T22:06:11.937Z,18.03
2022-12-08T22:08:39.538Z,26.80
2022-12-08T22:11:08.087Z,22.10
2022-12-08T22:13:35.999Z,24.63
2022-12-08T22:16:05.966Z,32.60
2022-12-08T22:18:34.465Z,25.20
2022-12-08T22:21:01.968Z,26.90
2022-12-08T22:23:29.253Z,29.67
2022-12-08T22:26:00.607Z,27.70
2022-12-08T22:28:31.061Z,33.57
2022-12-08T22:30:57.912Z,23.87
2022-12-08T22:33:24.887Z,29.17
2022-12-08T22:36:06.353Z,26.73
2022-12-08T22:38:36.888Z,27.47
2022-12-08T22:41:05.615Z,24.87
2022-12-08T22:43:33.246Z,27.53
2022-12-08T22:46:00.467Z,26.70
2022-12-08T22:48:28.006Z,28.63
2022-12-08T22:51:01.479Z,22.30
2022-12-08T22:53:29.268Z,19.70
2022-12-08T22:55:56.075Z,19.70
2022-12-08T22:58:22.878Z,23.17
2022-12-08T23:00:50.511Z,26.07
2022-12-08T23:03:17.598Z,29.60
2022-12-08T23:05:44.715Z,28.67
2022-12-08T23:08:15.866Z,26.97
2022-12-08T23:10:45.495Z,30.03
2022-12-08T23:13:13.066Z,27.37
2022-12-08T23:15:40.930Z,26.07
2022-12-08T23:18:08.127Z,25.30
2022-12-08T23:20:35.649Z,24.27
2022-12-08T23:23:02.653Z,23.63
2022-12-08T23:25:29.661Z,24.30
2022-12-08T23:27:56.944Z,24.70
2022-12-08T23:30:24.967Z,21.60
2022-12-08T23:32:56.269Z,24.13
2022-12-08T23:35:23.263Z,21.67
2022-12-08T23:37:50.273Z,20.77
2022-12-08T23:40:17.129Z,25.00
2022-12-08T23:42:44.054Z,24.13
2022-12-08T23:45:11.576Z,24.80
2022-12-08T23:47:38.465Z,22.03
2022-12-08T23:50:07.131Z,23.33
2022-12-08T23:52:34.547Z,20.80
2022-12-08T23:55:01.425Z,20.70
2022-12-08T23:57:28.634Z,23.27
2022-12-08T23:59:55.570Z,22.43
